Time;durP1;ratioP1;P1;durP2;ratioP2;P2;SDS_P1;SDS_P2;PMS_P1;PMS_P2;Temp;Humidity;BMP_temperature;BMP_pressure;BME280_temperature;BME280_humidity;BME280_pressure;Samples;Min_cycle;Max_cycle;Signal;HPM_P1;HPM_P2
2022/03/05 04:18:27;;;;;;;5.37;1.95;;;;;;;0.73;57.25;100421.61;1756227;79;25787;-55
2022/03/05 04:20:56;;;;;;;5.15;2.05;;;;;;;0.76;57.06;100418.04;1771204;79;21018;-57
2022/03/05 04:23:23;;;;;;;6.10;2.20;;;;;;;0.81;56.82;100423.45;1772332;79;21034;-56
2022/03/05 04:25:50;;;;;;;5.92;2.20;;;;;;;0.86;56.94;100428.00;1715492;82;21235;-57
2022/03/05 04:28:16;;;;;;;5.37;2.37;;;;;;;0.92;56.97;100430.80;1701777;82;21040;-56
2022/03/05 04:30:43;;;;;;;4.97;1.77;;;;;;;0.96;56.47;100429.78;1698154;83;21099;-56
2022/03/05 04:33:11;;;;;;;6.12;2.10;;;;;;;0.97;56.44;100432.75;1701007;83;21170;-56
2022/03/05 04:35:38;;;;;;;4.67;2.10;;;;;;;0.99;56.13;100430.10;1705912;81;21113;-56
2022/03/05 04:38:05;;;;;;;4.50;1.47;;;;;;;0.96;56.00;100436.27;1704957;82;21279;-56
2022/03/05 04:40:32;;;;;;;5.00;1.72;;;;;;;0.99;56.53;100439.17;1693061;82;21150;-56
2022/03/05 04:43:02;;;;;;;4.60;2.08;;;;;;;0.97;56.67;100444.88;1699555;82;21141;-57
2022/03/05 04:45:29;;;;;;;6.12;2.40;;;;;;;0.97;56.46;100452.64;1701434;82;21012;-56
2022/03/05 04:47:56;;;;;;;6.55;2.12;;;;;;;0.97;56.57;100450.05;1696297;83;21102;-57
2022/03/05 04:50:23;;;;;;;4.95;1.82;;;;;;;1.03;56.74;100449.83;1714270;82;21240;-56
2022/03/05 04:52:50;;;;;;;4.62;1.72;;;;;;;1.05;56.76;100448.01;1698867;82;21037;-56
2022/03/05 04:55:17;;;;;;;4.42;1.95;;;;;;;1.09;56.27;100454.75;1712018;82;21031;-56
2022/03/05 04:57:44;;;;;;;5.53;1.82;;;;;;;1.08;55.99;100455.20;1707102;82;21107;-57
2022/03/05 05:00:12;;;;;;;6.00;1.92;;;;;;;1.09;56.16;100459.92;1759977;79;21623;-56
2022/03/05 05:02:39;;;;;;;5.92;2.30;;;;;;;1.06;56.44;100460.91;1759734;80;21200;-56
2022/03/05 05:05:07;;;;;;;4.58;1.70;;;;;;;1.09;56.51;100464.68;1791183;78;21374;-56
2022/03/05 05:07:35;;;;;;;6.28;1.92;;;;;;;1.08;55.99;100466.87;1771591;79;21106;-56
2022/03/05 05:10:01;;;;;;;4.65;1.57;;;;;;;1.10;56.10;100470.70;1780761;78;21026;-56
2022/03/05 05:12:28;;;;;;;4.60;1.75;;;;;;;1.08;55.92;100473.34;1783957;78;21054;-55
2022/03/05 05:14:55;;;;;;;4.05;1.50;;;;;;;1.10;55.91;100478.02;1791235;78;21248;-57
2022/03/05 05:17:24;;;;;;;4.30;1.87;;;;;;;1.10;55.99;100479.30;1767662;79;21567;-56
2022/03/05 05:19:51;;;;;;;4.17;1.57;;;;;;;1.10;56.28;100483.66;1760688;79;21102;-57
2022/03/05 05:22:18;;;;;;;4.12;1.65;;;;;;;1.13;56.24;100491.31;1746307;79;21130;-56
2022/03/05 05:24:45;;;;;;;3.85;1.70;;;;;;;1.17;56.17;100497.22;1767009;79;21110;-56
2022/03/05 05:27:11;;;;;;;4.15;1.47;;;;;;;1.16;56.11;100496.38;1758321;78;21194;-56
2022/03/05 05:29:38;;;;;;;5.15;1.92;;;;;;;1.15;56.16;100492.09;1771757;79;21175;-56
2022/03/05 05:32:08;;;;;;;4.47;1.50;;;;;;;1.17;55.83;100494.16;1779061;78;21754;-56
2022/03/05 05:34:35;;;;;;;4.12;1.40;;;;;;;1.16;55.91;100495.52;1776254;77;21031;-56
2022/03/05 05:37:02;;;;;;;2.72;1.02;;;;;;;1.16;56.24;100498.98;1779200;79;21029;-56
2022/03/05 05:39:28;;;;;;;4.67;1.30;;;;;;;1.20;55.58;100504.42;1781631;79;21203;-56
2022/03/05 05:41:55;;;;;;;3.55;1.15;;;;;;;1.18;55.63;100507.53;1785983;79;21042;-57
2022/03/05 05:44:22;;;;;;;3.17;1.07;;;;;;;1.20;55.80;100511.36;1778970;78;21074;-56
2022/03/05 05:46:49;;;;;;;3.77;1.20;;;;;;;1.21;55.61;100514.33;1779099;79;21016;-56
2022/03/05 05:49:15;;;;;;;4.10;1.17;;;;;;;1.19;55.44;100526.05;1775509;79;21077;-56
2022/03/05 05:51:42;;;;;;;4.67;1.37;;;;;;;1.18;55.05;100514.44;1732240;82;21311;-56
2022/03/05 05:54:10;;;;;;;3.20;1.32;;;;;;;1.13;55.35;100516.37;1783248;78;21506;-57
2022/03/05 05:56:39;;;;;;;4.08;1.40;;;;;;;1.16;55.11;100509.77;1774068;78;21102;-57
2022/03/05 05:59:06;;;;;;;3.87;0.95;;;;;;;1.13;54.91;100517.23;1757991;79;21057;-56
2022/03/05 06:01:32;;;;;;;3.58;1.05;;;;;;;1.13;54.80;100517.23;1764826;79;21065;-56
2022/03/05 06:04:00;;;;;;;3.80;1.35;;;;;;;1.09;54.58;100521.70;1770108;79;21235;-57
2022/03/05 06:06:26;;;;;;;4.03;1.32;;;;;;;1.07;54.74;100521.34;1749855;79;21428;-56
2022/03/05 06:08:53;;;;;;;2.60;0.68;;;;;;;1.13;54.96;100521.55;1769901;78;21578;-57
2022/03/05 06:11:21;;;;;;;2.98;0.95;;;;;;;1.18;54.67;100528.27;1770809;78;21055;-56
2022/03/05 06:13:48;;;;;;;3.30;1.02;;;;;;;1.21;54.77;100529.88;1780926;77;20998;-56
2022/03/05 06:16:15;;;;;;;3.95;1.12;;;;;;;1.23;54.88;100534.58;1763382;80;21246;-56
2022/03/05 15:44:48;;;;;;;4.42;1.17;;;;;;;2.11;56.08;100817.88;1726164;81;21082;-58
2022/03/05 15:47:14;;;;;;;4.30;1.70;;;;;;;2.15;56.26;100820.30;1715173;82;21199;-57
2022/03/05 15:49:41;;;;;;;4.75;1.70;;;;;;;2.16;56.10;100819.84;1754612;79;21607;-57
2022/03/05 15:52:10;;;;;;;4.20;1.57;;;;;;;2.17;55.92;100823.67;1687767;82;21923;-56
2022/03/05 15:54:36;;;;;;;5.17;1.80;;;;;;;2.21;55.84;100830.89;1692692;82;21151;-57
2022/03/05 15:57:03;;;;;;;4.45;1.55;;;;;;;2.25;55.84;100827.26;1701320;81;21055;-57
2022/03/05 16:02:12;;;;;;;4.28;1.87;;;;;;;2.33;55.83;100835.61;1779723;79;22409;-57
2022/03/05 16:04:38;;;;;;;5.67;2.22;;;;;;;2.36;55.73;100844.58;1732295;80;21560;-57
2022/03/05 16:07:04;;;;;;;4.50;2.20;;;;;;;2.36;55.66;100843.28;1740869;81;21223;-57
2022/03/05 16:09:30;;;;;;;7.35;2.10;;;;;;;2.37;55.59;100845.42;1746936;80;21050;-56
2022/03/05 16:11:57;;;;;;;5.58;1.75;;;;;;;2.39;55.68;100847.06;1743553;81;21530;-57
2022/03/05 16:14:23;;;;;;;7.37;2.40;;;;;;;2.37;55.63;100848.88;1733158;80;21023;-57
2022/03/05 16:16:49;;;;;;;4.12;1.60;;;;;;;2.39;55.78;100851.42;1732150;80;21007;-57
2022/03/05 16:19:16;;;;;;;6.08;1.90;;;;;;;2.40;55.72;100857.00;1729690;81;21901;-57
2022/03/05 16:21:42;;;;;;;5.50;1.95;;;;;;;2.40;55.54;100855.70;1740163;80;21557;-57
2022/03/05 16:24:10;;;;;;;5.65;2.37;;;;;;;2.43;55.37;100857.34;1692753;83;21736;-58
2022/03/05 16:26:38;;;;;;;5.42;2.17;;;;;;;2.41;55.30;100859.53;1681652;83;21581;-57
2022/03/05 16:29:08;;;;;;;6.65;2.45;;;;;;;2.41;55.37;100857.40;1699494;82;21521;-57
2022/03/05 16:31:34;;;;;;;5.83;2.15;;;;;;;2.43;55.48;100853.45;1689778;83;22012;-59
2022/03/05 16:34:01;;;;;;;6.03;2.15;;;;;;;2.44;55.48;100866.38;1688644;82;21569;-57
2022/03/05 16:36:27;;;;;;;4.85;1.90;;;;;;;2.46;55.50;100870.22;1691958;83;21722;-58
2022/03/05 16:38:54;;;;;;;7.25;2.27;;;;;;;2.47;55.41;100867.99;1693269;82;21027;-58
2022/03/05 16:41:24;;;;;;;4.83;2.00;;;;;;;2.49;55.34;100875.27;1696125;82;21610;-57
2022/03/05 16:43:50;;;;;;;12.37;2.92;;;;;;;2.51;55.21;100878.68;1704475;82;21236;-57
2022/03/05 16:46:17;;;;;;;5.40;2.30;;;;;;;2.49;55.20;100872.67;1688450;82;21008;-57
2022/03/05 16:48:43;;;;;;;7.03;2.67;;;;;;;2.50;55.20;100877.81;1698845;82;21154;-58
2022/03/05 16:51:10;;;;;;;6.60;2.70;;;;;;;2.51;55.33;100876.08;1702803;83;21640;-57
2022/03/05 16:53:36;;;;;;;7.03;2.52;;;;;;;2.54;55.37;100881.13;1700451;82;21039;-57
2022/03/05 16:56:09;;;;;;;8.45;3.10;;;;;;;2.53;55.28;100881.59;1689604;82;21972;-58
2022/03/05 16:58:35;;;;;;;6.53;2.95;;;;;;;2.55;55.16;100886.73;1689851;82;21542;-58
2022/03/05 17:01:03;;;;;;;6.50;2.87;;;;;;;2.57;54.95;100891.41;1688702;82;21063;-59
2022/03/05 17:03:29;;;;;;;8.23;2.98;;;;;;;2.55;54.60;100880.23;1693700;83;21161;-58
2022/03/05 17:05:55;;;;;;;8.58;3.22;;;;;;;2.56;54.60;100883.24;1688793;83;21017;-58
2022/03/05 17:08:21;;;;;;;4.83;2.12;;;;;;;2.57;54.50;100888.38;1690191;83;21163;-57
2022/03/05 17:10:53;;;;;;;5.17;2.35;;;;;;;2.55;54.56;100891.47;1666274;84;21071;-57
2022/03/05 17:13:19;;;;;;;5.58;2.50;;;;;;;2.57;54.52;100892.71;1731065;81;21511;-58
2022/03/05 17:15:49;;;;;;;5.97;2.50;;;;;;;2.57;54.51;100894.01;1702116;82;22429;-57
2022/03/05 17:18:15;;;;;;;5.62;2.55;;;;;;;2.55;54.63;100892.77;1724545;81;20996;-57
2022/03/05 17:20:42;;;;;;;6.03;2.12;;;;;;;2.58;54.78;100903.51;1728674;80;21167;-58
2022/03/05 17:23:09;;;;;;;6.17;2.70;;;;;;;2.58;54.83;100903.51;1727156;81;21732;-59
2022/03/05 17:25:36;;;;;;;7.05;3.20;;;;;;;2.57;54.87;100901.37;1690229;83;21546;-58
2022/03/05 17:28:03;;;;;;;7.62;2.62;;;;;;;2.58;54.61;100906.11;1702635;82;21648;-58
2022/03/05 17:30:31;;;;;;;5.55;2.33;;;;;;;2.60;54.62;100907.72;1697698;82;21039;-58
2022/03/05 17:32:57;;;;;;;6.12;2.17;;;;;;;2.60;54.74;100912.08;1697394;82;22459;-58
2022/03/05 17:35:26;;;;;;;7.42;3.40;;;;;;;2.60;54.89;100906.89;1695381;82;22279;-58
2022/03/05 17:37:52;;;;;;;6.47;3.05;;;;;;;2.62;54.96;100912.86;1699848;82;21529;-58
2022/03/05 17:40:19;;;;;;;6.22;2.65;;;;;;;2.65;54.86;100911.91;1699784;84;22448;-58
2022/03/05 17:42:46;;;;;;;5.35;2.52;;;;;;;2.64;54.81;100912.38;1694781;82;22421;-58
